createdAt,value
2018-02-06T00:00:55.402Z,101402.44
2018-02-06T00:03:23.131Z,101400.56
2018-02-06T00:05:50.805Z,101402.73
2018-02-06T00:08:18.501Z,101390.06
2018-02-06T00:10:46.178Z,101386.95
2018-02-06T00:13:13.869Z,101391.05
2018-02-06T00:15:41.621Z,101383.47
2018-02-06T00:18:09.319Z,101380.88
2018-02-06T00:20:36.985Z,101374.66
2018-02-06T00:23:04.683Z,101369.63
2018-02-06T00:25:32.345Z,101370.66
2018-02-06T00:28:00.042Z,101372.55
2018-02-06T00:30:27.709Z,101368.83
2018-02-06T00:32:55.486Z,101356.34
2018-02-06T00:35:23.181Z,101351.07
2018-02-06T00:37:50.856Z,101351.32
2018-02-06T00:40:18.574Z,101344.20
2018-02-06T00:42:46.257Z,101338.42
2018-02-06T00:45:13.960Z,101324.34
2018-02-06T00:47:41.670Z,101324.87
2018-02-06T00:50:09.351Z,101314.66
2018-02-06T00:52:37.089Z,101310.28
2018-02-06T00:55:04.775Z,101296.44
2018-02-06T00:57:32.468Z,101291.59
2018-02-06T01:00:00.159Z,101288.64
2018-02-06T01:02:27.907Z,101289.02
2018-02-06T01:04:55.622Z,101289.06
2018-02-06T01:07:23.377Z,101281.88
2018-02-06T01:09:51.079Z,101288.84
2018-02-06T01:12:18.742Z,101281.27
2018-02-06T01:14:46.455Z,101280.89
2018-02-06T01:17:14.139Z,101275.62
2018-02-06T01:19:41.842Z,101275.71
2018-02-06T01:22:09.509Z,101267.58
2018-02-06T01:24:37.281Z,101265.84
2018-02-06T01:27:04.945Z,101260.80
2018-02-06T01:29:32.659Z,101263.02
2018-02-06T01:32:00.358Z,101255.95
2018-02-06T01:34:28.122Z,101255.81
2018-02-06T01:36:55.802Z,101253.94
2018-02-06T01:39:23.514Z,101251.49
2018-02-06T01:41:51.196Z,101255.17
2018-02-06T01:44:18.918Z,101245.14
2018-02-06T01:46:46.652Z,101240.63
2018-02-06T01:49:14.361Z,101238.05
2018-02-06T01:51:42.065Z,101231.23
2018-02-06T01:54:09.817Z,101231.41
2018-02-06T01:56:37.491Z,101226.77
2018-02-06T01:59:05.207Z,101226.20
2018-02-06T02:01:32.901Z,101224.98
2018-02-06T02:04:00.626Z,101215.94
2018-02-06T02:06:28.293Z,101210.13
2018-02-06T02:08:56.106Z,101204.58
2018-02-06T02:11:23.820Z,101199.63
2018-02-06T02:13:51.529Z,101194.91
2018-02-06T02:16:19.230Z,101182.87
2018-02-06T02:18:46.920Z,101186.67
2018-02-06T02:21:14.591Z,101184.64
2018-02-06T02:23:42.290Z,101174.03
2018-02-06T02:26:09.957Z,101172.52
2018-02-06T02:28:37.750Z,101163.02
2018-02-06T02:31:05.510Z,101166.22
2018-02-06T02:33:33.218Z,101157.57
2018-02-06T02:36:00.899Z,101161.16
2018-02-06T02:38:28.618Z,101152.84
2018-02-06T02:40:56.312Z,101138.31
2018-02-06T04:39:05.523Z,101008.59
2018-02-06T04:41:33.221Z,101011.09
2018-02-06T04:44:00.901Z,101008.05
2018-02-06T04:46:28.634Z,101003.49
2018-02-06T04:48:56.305Z,101000.98
2018-02-06T04:51:24.054Z,100997.97
2018-02-06T04:53:51.761Z,101003.05
2018-02-06T04:56:19.476Z,100998.91
2018-02-06T04:58:47.206Z,100993.53
2018-02-06T05:01:14.909Z,100989.84
2018-02-06T05:03:42.627Z,100987.23
2018-02-06T05:06:10.331Z,100983.38
2018-02-06T05:08:37.994Z,100979.44
2018-02-06T05:11:05.694Z,100980.88
2018-02-06T05:13:33.413Z,100976.31
2018-02-06T05:16:01.085Z,100979.69
2018-02-06T05:18:28.786Z,100978.00
2018-02-06T05:20:56.486Z,100985.59
2018-02-06T05:23:24.182Z,100981.95
2018-02-06T05:25:51.870Z,100977.69
2018-02-06T05:28:19.541Z,100975.77
2018-02-06T05:30:47.262Z,100969.56
2018-02-06T05:33:14.937Z,100969.78
2018-02-06T05:35:42.637Z,100957.54
2018-02-06T05:38:10.305Z,100966.47
2018-02-06T05:40:38.098Z,100961.03
2018-02-06T05:43:05.766Z,100963.42
2018-02-06T05:45:33.509Z,100961.42
2018-02-06T05:48:01.183Z,100959.72
2018-02-06T05:50:28.889Z,100950.30
2018-02-06T05:52:56.585Z,100948.38
2018-02-06T05:55:24.289Z,100942.55
2018-02-06T05:57:52.016Z,100933.80
2018-02-06T06:00:19.835Z,100935.64
2018-02-06T06:02:47.607Z,100930.02
2018-02-06T06:05:15.302Z,100931.24
2018-02-06T06:07:42.969Z,100931.69
2018-02-06T06:10:10.662Z,100926.73
2018-02-06T06:12:38.333Z,100923.12
2018-02-06T06:15:06.034Z,100917.14
2018-02-06T06:17:33.715Z,100917.76
2018-02-06T06:20:01.447Z,100910.95
2018-02-06T06:22:29.140Z,100914.48
2018-02-06T06:24:56.831Z,100921.22
2018-02-06T06:27:24.504Z,100916.55
2018-02-06T06:29:52.209Z,100911.31
2018-02-06T06:32:19.882Z,100910.53
2018-02-06T06:34:47.583Z,100907.89
2018-02-06T06:37:15.262Z,100905.04
2018-02-06T06:39:42.962Z,100903.45
2018-02-06T06:42:10.632Z,100904.77
2018-02-06T06:44:38.318Z,100896.95
2018-02-06T06:47:05.981Z,100898.58
2018-02-06T06:49:33.694Z,100894.08
2018-02-06T06:52:01.366Z,100890.13
2018-02-06T06:54:29.075Z,100890.03
2018-02-06T06:56:56.745Z,100884.50
2018-02-06T06:59:24.437Z,100888.05
2018-02-06T07:01:52.177Z,100883.40
2018-02-06T07:04:19.915Z,100884.08
2018-02-06T07:06:47.596Z,100884.26
2018-02-06T07:09:15.277Z,100882.42
2018-02-06T07:11:43.126Z,100882.86
2018-02-06T07:14:10.826Z,100879.81
2018-02-06T07:16:38.570Z,100883.40
2018-02-06T07:19:06.270Z,100887.76
2018-02-06T07:21:33.941Z,100890.05
2018-02-06T07:24:01.657Z,100893.20
2018-02-06T07:26:29.338Z,100887.52
2018-02-06T07:28:57.042Z,100883.77
2018-02-06T07:31:24.718Z,100894.00
2018-02-06T07:33:52.433Z,100890.39
2018-02-06T07:36:20.108Z,100886.34
2018-02-06T07:38:47.802Z,100883.14
2018-02-06T07:41:15.515Z,100887.11
2018-02-06T07:43:43.222Z,100886.61
2018-02-06T07:46:10.894Z,100890.38
2018-02-06T07:48:38.640Z,100889.98
2018-02-06T07:51:06.311Z,100892.64
2018-02-06T07:53:33.981Z,100881.88
2018-02-06T07:56:01.678Z,100877.78
2018-02-06T07:58:29.345Z,100880.52
2018-02-06T08:00:57.058Z,100883.58
2018-02-06T08:03:24.730Z,100882.68
2018-02-06T08:05:52.437Z,100885.98
2018-02-06T08:08:20.109Z,100884.35
2018-02-06T08:10:47.816Z,100883.67
2018-02-06T08:13:15.494Z,100878.61
2018-02-06T08:15:43.226Z,100883.91
2018-02-06T08:18:10.925Z,100878.73
2018-02-06T08:20:38.613Z,100873.45
2018-02-06T08:23:06.278Z,100868.53
2018-02-06T08:25:33.981Z,100864.55
2018-02-06T08:28:01.667Z,100870.17
2018-02-06T08:30:29.403Z,100866.77
2018-02-06T08:32:57.084Z,100864.37
2018-02-06T08:35:24.964Z,100860.41
2018-02-06T08:37:52.649Z,100855.66
2018-02-06T08:40:20.462Z,100854.54
2018-02-06T08:42:48.135Z,100852.94
2018-02-06T08:45:15.834Z,100855.47
2018-02-06T08:47:43.510Z,100848.98
2018-02-06T08:50:11.238Z,100841.38
2018-02-06T08:52:38.938Z,100840.73
2018-02-06T08:55:06.658Z,100838.84
2018-02-06T08:57:34.337Z,100837.52
2018-02-06T09:00:02.018Z,100834.91
2018-02-06T09:02:29.698Z,100835.25
2018-02-06T09:04:57.390Z,100824.00
2018-02-06T09:07:25.116Z,100821.20
2018-02-06T09:09:52.818Z,100821.00
2018-02-06T09:12:20.481Z,100824.40
2018-02-06T09:14:48.242Z,100810.95
2018-02-06T09:17:15.946Z,100818.27
2018-02-06T09:19:43.644Z,100809.48
2018-02-06T09:22:11.318Z,100808.09
2018-02-06T09:24:39.138Z,100810.06
2018-02-06T09:27:06.815Z,100813.52
2018-02-06T09:29:34.635Z,100815.64
2018-02-06T09:32:02.319Z,100818.02
2018-02-06T09:34:30.029Z,100816.88
2018-02-06T09:36:57.694Z,100814.14
2018-02-06T09:39:25.406Z,100813.24
2018-02-06T09:41:53.099Z,100809.27
2018-02-06T09:44:20.790Z,100812.92
2018-02-06T09:46:48.491Z,100812.25
2018-02-06T09:49:16.191Z,100812.84
2018-02-06T09:51:43.873Z,100816.81
2018-02-06T09:54:11.582Z,100813.37
2018-02-06T09:56:39.246Z,100819.66
2018-02-06T09:59:06.954Z,100819.55
2018-02-06T10:01:34.642Z,100820.27
2018-02-06T10:04:02.368Z,100822.81
2018-02-06T10:06:30.047Z,100819.55
2018-02-06T10:08:57.764Z,100815.78
2018-02-06T10:11:25.430Z,100815.38
2018-02-06T10:13:53.154Z,100812.66
2018-02-06T10:16:20.851Z,100814.77
2018-02-06T10:18:48.581Z,100809.08
2018-02-06T10:21:16.307Z,100813.36
2018-02-06T10:23:43.975Z,100807.86
2018-02-06T10:26:11.653Z,100804.92
2018-02-06T10:28:39.369Z,100808.41
2018-02-06T10:31:07.129Z,100799.97
2018-02-06T10:33:34.855Z,100798.66
2018-02-06T10:36:02.621Z,100794.11
2018-02-06T10:38:30.330Z,100784.77
2018-02-06T10:40:58.035Z,100780.91
2018-02-06T10:43:25.741Z,100779.31
2018-02-06T10:45:53.531Z,100785.88
2018-02-06T10:48:21.244Z,100783.73
2018-02-06T10:50:48.917Z,100786.57
2018-02-06T10:53:16.783Z,100786.67
2018-02-06T10:55:44.446Z,100783.93
2018-02-06T10:58:12.141Z,100772.69
2018-02-06T11:00:39.845Z,100770.75
2018-02-06T11:03:07.551Z,100760.30
2018-02-06T11:05:35.295Z,100757.18
2018-02-06T11:08:03.026Z,100756.45
2018-02-06T11:10:30.719Z,100760.09
2018-02-06T11:12:58.536Z,100755.75
2018-02-06T11:15:26.259Z,100760.73
2018-02-06T11:17:54.008Z,100757.78
2018-02-06T11:20:21.698Z,100756.97
2018-02-06T11:22:49.421Z,100742.36
2018-02-06T11:25:17.100Z,100731.50
2018-02-06T11:27:44.813Z,100732.82
2018-02-06T11:30:12.485Z,100717.89
2018-02-06T11:32:40.227Z,100721.16
2018-02-06T11:35:07.942Z,100720.64
2018-02-06T11:37:35.629Z,100717.58
2018-02-06T11:40:03.315Z,100714.35
2018-02-06T11:42:31.017Z,100712.03
2018-02-06T11:44:58.750Z,100697.31
2018-02-06T11:47:26.432Z,100690.98
2018-02-06T11:49:54.132Z,100686.92
2018-02-06T11:52:21.826Z,100684.17
2018-02-06T11:54:49.531Z,100691.09
2018-02-06T11:57:17.302Z,100695.25
2018-02-06T11:59:45.010Z,100699.91
2018-02-06T12:02:12.774Z,100692.20
2018-02-06T12:04:40.477Z,100694.34
2018-02-06T12:07:08.154Z,100690.28
2018-02-06T12:09:35.861Z,100684.48
2018-02-06T12:12:03.577Z,100679.83
2018-02-06T12:14:31.287Z,100673.60
2018-02-06T12:16:58.978Z,100664.05
2018-02-06T12:19:26.687Z,100666.09
2018-02-06T12:21:54.349Z,100657.27
2018-02-06T12:24:22.050Z,100649.22
2018-02-06T12:26:49.769Z,100645.94
2018-02-06T12:29:17.485Z,100645.05
2018-02-06T12:31:45.154Z,100660.06
2018-02-06T12:34:12.846Z,100664.53
2018-02-06T12:36:40.531Z,100662.19
2018-02-06T12:39:08.241Z,100664.09
2018-02-06T12:41:35.913Z,100656.98
2018-02-06T12:44:03.606Z,100656.48
2018-02-06T12:46:31.285Z,100651.09
2018-02-06T12:48:59.003Z,100646.72
2018-02-06T12:51:26.687Z,100643.58
2018-02-06T12:53:54.385Z,100632.80
2018-02-06T12:56:22.054Z,100626.78
2018-02-06T12:58:49.812Z,100622.38
2018-02-06T13:01:17.481Z,100613.33
2018-02-06T13:03:45.254Z,100625.02
2018-02-06T13:06:12.930Z,100623.91
2018-02-06T13:08:42.060Z,100612.12
2018-02-06T13:11:09.753Z,100610.31
2018-02-06T13:13:37.480Z,100604.20
2018-02-06T13:16:05.149Z,100608.80
2018-02-06T13:18:32.866Z,100608.35
2018-02-06T13:21:00.550Z,100613.74
2018-02-06T13:23:28.249Z,100611.79
2018-02-06T13:25:56.016Z,100614.03
2018-02-06T13:28:23.731Z,100611.88
2018-02-06T13:30:51.415Z,100610.47
2018-02-06T13:33:19.126Z,100609.99
2018-02-06T13:35:46.854Z,100607.24
2018-02-06T13:38:14.590Z,100602.44
2018-02-06T13:40:42.260Z,100602.52
2018-02-06T13:43:09.981Z,100605.68
2018-02-06T13:45:37.669Z,100608.86
2018-02-06T13:48:05.381Z,100600.96
2018-02-06T13:50:33.157Z,100599.87
2018-02-06T13:53:00.871Z,100605.22
2018-02-06T13:55:28.482Z,100595.95
2018-02-06T13:57:56.204Z,100611.61
2018-02-06T14:00:23.934Z,100602.03
2018-02-06T14:02:51.657Z,100607.63
2018-02-06T14:05:19.418Z,100606.97
2018-02-06T14:07:47.145Z,100604.58
2018-02-06T14:10:14.878Z,100604.30
2018-02-06T14:12:42.597Z,100609.77
2018-02-06T14:15:10.365Z,100607.41
2018-02-06T14:17:38.073Z,100604.50
2018-02-06T14:20:05.757Z,100602.56
2018-02-06T14:22:33.463Z,100600.22
2018-02-06T14:25:01.215Z,100603.34
2018-02-06T14:27:29.062Z,100596.25
2018-02-06T14:29:56.731Z,100599.89
2018-02-06T14:32:24.489Z,100589.97
2018-02-06T14:34:52.197Z,100591.53
2018-02-06T14:37:20.262Z,100582.69
2018-02-06T14:39:47.943Z,100585.53
2018-02-06T14:42:15.649Z,100583.21
2018-02-06T14:44:43.345Z,100584.32
2018-02-06T14:47:11.081Z,100578.72
2018-02-06T14:49:38.792Z,100583.52
2018-02-06T14:52:06.635Z,100584.31
2018-02-06T14:54:34.343Z,100572.13
2018-02-06T14:57:02.017Z,100576.29
2018-02-06T14:59:29.699Z,100577.73
2018-02-06T15:01:57.432Z,100571.14
2018-02-06T15:04:25.090Z,100573.09
2018-02-06T15:06:52.785Z,100572.77
2018-02-06T15:09:20.467Z,100571.96
2018-02-06T15:11:48.166Z,100566.97
2018-02-06T15:14:15.855Z,100566.98
2018-02-06T15:16:43.571Z,100563.05
2018-02-06T15:19:11.261Z,100563.84
2018-02-06T15:21:38.978Z,100565.59
2018-02-06T15:24:06.645Z,100566.39
2018-02-06T15:26:34.355Z,100567.30
2018-02-06T15:29:02.094Z,100572.30
2018-02-06T15:31:29.820Z,100568.05
2018-02-06T15:33:57.491Z,100569.27
2018-02-06T15:36:25.338Z,100570.89
2018-02-06T15:38:53.027Z,100571.30
2018-02-06T15:41:20.794Z,100568.73
2018-02-06T15:43:48.466Z,100575.94
2018-02-06T15:46:16.161Z,100572.47
2018-02-06T15:48:44.679Z,100577.16
2018-02-06T15:51:12.378Z,100575.09
2018-02-06T15:53:40.082Z,100576.70
2018-02-06T15:56:07.845Z,100569.88
2018-02-06T15:58:35.522Z,100573.42
2018-02-06T16:01:18.086Z,100577.67
2018-02-06T16:03:45.792Z,100576.81
2018-02-06T16:06:13.484Z,100577.95
2018-02-06T16:08:41.219Z,100577.32
2018-02-06T16:11:08.906Z,100578.73
2018-02-06T16:13:36.562Z,100577.95
2018-02-06T16:16:04.299Z,100578.09
2018-02-06T16:18:31.969Z,100573.30
2018-02-06T16:20:59.761Z,100577.36
2018-02-06T16:23:27.446Z,100574.81
2018-02-06T16:25:55.190Z,100575.31
2018-02-06T16:28:22.874Z,100582.92
2018-02-06T16:30:50.654Z,100586.66
2018-02-06T16:33:18.324Z,100585.93
2018-02-06T16:35:46.054Z,100594.89
2018-02-06T16:38:13.858Z,100589.27
2018-02-06T16:40:41.558Z,100587.33
2018-02-06T16:43:10.053Z,100585.22
2018-02-06T16:45:37.785Z,100586.87
2018-02-06T16:48:05.481Z,100586.27
2018-02-06T16:50:33.241Z,100588.92
2018-02-06T16:53:00.924Z,100584.71
2018-02-06T16:55:28.646Z,100590.80
2018-02-06T16:57:56.321Z,100584.30
2018-02-06T17:00:24.014Z,100590.58
2018-02-06T17:02:51.726Z,100595.04
2018-02-06T17:05:19.461Z,100591.89
2018-02-06T17:07:47.166Z,100589.55
2018-02-06T17:10:14.886Z,100592.08
2018-02-06T17:12:42.573Z,100589.11
2018-02-06T17:15:10.303Z,100598.45
2018-02-06T17:17:37.996Z,100593.27
2018-02-06T17:20:05.724Z,100594.59
2018-02-06T17:22:33.410Z,100595.72
2018-02-06T17:25:01.169Z,100594.70
2018-02-06T17:27:28.859Z,100591.07
2018-02-06T17:29:56.638Z,100589.98
2018-02-06T17:32:24.394Z,100590.91
2018-02-06T17:34:52.167Z,100590.42
2018-02-06T17:37:19.854Z,100586.84
2018-02-06T17:39:47.606Z,100592.74
2018-02-06T17:42:15.283Z,100593.95
2018-02-06T17:44:42.999Z,100592.31
2018-02-06T17:47:10.748Z,100591.09
2018-02-06T17:49:38.558Z,100596.78
2018-02-06T17:52:06.250Z,100596.69
2018-02-06T17:54:33.998Z,100604.52
2018-02-06T17:57:01.719Z,100598.12
2018-02-06T17:59:29.443Z,100600.34
2018-02-06T18:01:57.242Z,100597.30
2018-02-06T18:04:24.942Z,100597.59
2018-02-06T18:06:52.654Z,100601.87
2018-02-06T18:09:20.370Z,100602.56
2018-02-06T18:11:48.085Z,100611.80
2018-02-06T18:14:15.813Z,100616.58
2018-02-06T18:16:43.578Z,100617.91
2018-02-06T18:19:11.283Z,100620.34
2018-02-06T18:21:38.958Z,100626.00
2018-02-06T18:24:06.666Z,100625.99
2018-02-06T18:26:34.352Z,100626.09
2018-02-06T18:29:02.085Z,100625.30
2018-02-06T18:31:29.809Z,100622.25
2018-02-06T18:33:57.528Z,100622.68
2018-02-06T18:36:25.185Z,100620.73
2018-02-06T18:38:52.898Z,100616.06
2018-02-06T18:41:20.633Z,100623.17
2018-02-06T18:43:48.353Z,100619.51
2018-02-06T18:46:15.985Z,100620.55
2018-02-06T18:48:43.734Z,100630.70
2018-02-06T18:51:11.410Z,100626.22
2018-02-06T18:53:39.154Z,100627.15
2018-02-06T18:56:06.857Z,100634.23
2018-02-06T18:58:34.621Z,100632.33
2018-02-06T19:01:02.301Z,100635.77
2018-02-06T19:03:29.998Z,100631.48
2018-02-06T19:05:57.730Z,100633.42
2018-02-06T19:08:25.442Z,100629.57
2018-02-06T19:10:53.149Z,100637.37
2018-02-06T19:13:20.975Z,100631.99
2018-02-06T19:15:48.685Z,100633.80
2018-02-06T19:18:16.501Z,100634.63
2018-02-06T19:20:44.266Z,100632.09
2018-02-06T19:23:11.958Z,100630.77
2018-02-06T19:25:39.682Z,100633.09
2018-02-06T19:28:07.417Z,100631.45
2018-02-06T19:30:35.126Z,100629.81
2018-02-06T19:33:02.854Z,100627.39
2018-02-06T19:35:30.604Z,100630.03
2018-02-06T19:37:58.318Z,100629.34
2018-02-06T19:40:26.084Z,100628.33
2018-02-06T19:42:53.779Z,100631.47
2018-02-06T19:45:21.688Z,100634.22
2018-02-06T19:47:49.382Z,100634.42
2018-02-06T19:50:17.094Z,100640.21
2018-02-06T19:52:44.825Z,100633.61
2018-02-06T19:55:12.543Z,100630.35
2018-02-06T19:57:40.221Z,100638.58
2018-02-06T20:00:07.963Z,100640.39
2018-02-06T20:02:35.663Z,100635.84
2018-02-06T20:05:03.395Z,100633.69
2018-02-06T20:07:31.090Z,100639.17
2018-02-06T20:09:58.838Z,100638.68
2018-02-06T20:12:26.438Z,100637.57
2018-02-06T20:14:54.206Z,100638.27
2018-02-06T20:17:21.894Z,100628.02
2018-02-06T20:19:49.610Z,100628.50
2018-02-06T20:22:17.290Z,100626.70
2018-02-06T20:24:45.014Z,100621.64
2018-02-06T20:27:12.716Z,100624.17
2018-02-06T20:29:40.438Z,100620.59
2018-02-06T20:32:08.309Z,100625.70
2018-02-06T20:34:36.037Z,100625.82
2018-02-06T20:37:03.709Z,100623.19
2018-02-06T20:39:31.421Z,100628.74
2018-02-06T20:41:59.131Z,100630.48
2018-02-06T20:44:26.849Z,100629.16
2018-02-06T20:46:54.533Z,100627.84
2018-02-06T20:49:22.243Z,100619.91
2018-02-06T20:51:49.910Z,100625.50
2018-02-06T20:54:17.630Z,100633.91
2018-02-06T20:56:45.383Z,100633.21
2018-02-06T20:59:13.102Z,100629.67
2018-02-06T21:01:40.813Z,100623.56
2018-02-06T21:04:08.550Z,100631.91
2018-02-06T21:06:36.244Z,100620.88
2018-02-06T21:09:03.974Z,100626.23
2018-02-06T21:11:31.760Z,100627.37
2018-02-06T21:13:59.490Z,100627.77
2018-02-06T21:16:27.188Z,100638.42
2018-02-06T21:18:54.968Z,100638.43
2018-02-06T21:21:22.650Z,100639.47
2018-02-06T21:23:50.370Z,100645.96
2018-02-06T21:26:18.178Z,100644.74
2018-02-06T21:28:45.901Z,100639.16
2018-02-06T21:31:13.648Z,100639.84
2018-02-06T21:33:41.446Z,100635.19
2018-02-06T21:36:09.117Z,100639.64
2018-02-06T21:38:36.940Z,100636.99
2018-02-06T21:41:04.620Z,100639.34
2018-02-06T21:43:32.238Z,100633.96
2018-02-06T21:45:59.834Z,100642.16
2018-02-06T21:48:27.539Z,100641.05
2018-02-06T21:50:55.286Z,100643.89
2018-02-06T21:53:22.983Z,100651.30
2018-02-06T21:55:50.671Z,100654.77
2018-02-06T21:58:18.386Z,100655.30
2018-02-06T22:00:46.086Z,100667.56
2018-02-06T22:03:13.796Z,100665.13
2018-02-06T22:05:41.479Z,100663.32
2018-02-06T22:08:09.241Z,100661.38
2018-02-06T22:10:36.916Z,100659.64
2018-02-06T22:13:04.609Z,100666.86
2018-02-06T22:15:32.284Z,100671.23
2018-02-06T22:17:59.988Z,100670.72
2018-02-06T22:20:27.651Z,100671.52
2018-02-06T22:22:55.446Z,100663.01
2018-02-06T22:25:23.122Z,100658.32
2018-02-06T22:27:50.889Z,100656.55
2018-02-06T22:30:18.582Z,100658.30
2018-02-06T22:32:46.338Z,100665.91
2018-02-06T22:35:14.018Z,100664.80
2018-02-06T22:37:41.784Z,100668.08
2018-02-06T22:40:09.530Z,100667.97
2018-02-06T22:42:37.255Z,100674.98
2018-02-06T22:45:05.019Z,100669.91
2018-02-06T22:47:32.746Z,100674.05
2018-02-06T22:50:00.426Z,100676.30
2018-02-06T22:52:28.138Z,100673.35
2018-02-06T22:54:55.850Z,100676.20
2018-02-06T22:57:23.570Z,100678.52
2018-02-06T22:59:51.270Z,100670.40
2018-02-06T23:02:18.949Z,100676.30
2018-02-06T23:04:46.661Z,100669.70
2018-02-06T23:07:14.338Z,100670.02
2018-02-06T23:09:42.173Z,100662.80
2018-02-06T23:12:09.809Z,100660.47
2018-02-06T23:14:37.501Z,100658.63
2018-02-06T23:17:05.177Z,100658.35
2018-02-06T23:19:32.889Z,100657.31
2018-02-06T23:22:00.602Z,100659.35
2018-02-06T23:24:28.318Z,100663.63
2018-02-06T23:26:56.011Z,100671.33
2018-02-06T23:29:23.706Z,100674.66
2018-02-06T23:31:51.387Z,100674.17
2018-02-06T23:34:19.209Z,100677.02
2018-02-06T23:36:46.894Z,100669.00
2018-02-06T23:39:14.696Z,100673.43
2018-02-06T23:41:42.381Z,100672.44
2018-02-06T23:44:10.092Z,100669.91
2018-02-06T23:46:37.778Z,100671.33
2018-02-06T23:49:05.503Z,100668.38
2018-02-06T23:51:33.169Z,100670.50
2018-02-06T23:54:00.877Z,100671.44
2018-02-06T23:56:28.545Z,100666.55
2018-02-06T23:58:56.265Z,100668.28
